CheckWX is a tool to help pilots better visualize weather data.  It is not intended as a substitute for an official pre-flight weather briefing.

19:16:44 UTC

DGAA METAR
Kotoka International Airport
Accra, Ghana
Current

1 hour ago

DGAA 261800Z 23010KT 200V260 9999 SCT016 BKN029CB BKN037 28/25 Q1010 NOSIG
Observed
May-26 @ 18:00 UTC
Wind
  • 230° at 10 KTS
Visibility
10,000+ meters
Flight Rules
MVFR
Cloud Levels
  • Scattered at 1,600' AGL
  • Broken at 2,900' AGL
  • Broken at 3,700' AGL
Temperature
28°C / 82°F
Dewpoint
25°C / 77°F
Heat Index
32°C / 90°F
Humidity
84%
Altimeter
29.82" Hg
Pressure
1009.92 hPa
Previous

2 hours ago

DGAA 261700Z 21012KT 9999 FEW021 29/25 Q1009 NOSIG
Observed
May-26 @ 17:00 UTC
Wind
  • 210° at 12 KTS
Visibility
10,000+ meters
Flight Rules
VFR
Cloud Levels
  • Few at 2,100' AGL
Temperature
29°C / 84°F
Dewpoint
25°C / 77°F
Heat Index
34°C / 94°F
Humidity
79%
Altimeter
29.79" Hg
Pressure
1008.92 hPa
Previous

3 hours ago

DGAA 261600Z 20013KT 9999 FEW023 30/25 Q1009 NOSIG
Observed
May-26 @ 16:00 UTC
Wind
  • 200° at 13 KTS
Visibility
10,000+ meters
Flight Rules
VFR
Cloud Levels
  • Few at 2,300' AGL
Temperature
30°C / 86°F
Dewpoint
25°C / 77°F
Heat Index
36°C / 97°F
Humidity
75%
Altimeter
29.79" Hg
Pressure
1008.92 hPa